createdAt,value
2017-03-28T00:00:35.572Z,7.4
2017-03-28T00:01:38.412Z,7.4
2017-03-28T00:02:41.013Z,7.3
2017-03-28T00:03:43.780Z,7.3
2017-03-28T00:04:45.981Z,7.3
2017-03-28T00:05:48.687Z,7.3
2017-03-28T00:06:52.083Z,7.3
2017-03-28T00:07:54.168Z,7.3
2017-03-28T00:08:56.511Z,7.3
2017-03-28T00:09:59.353Z,7.3
2017-03-28T00:11:01.693Z,7.3
2017-03-28T00:12:04.533Z,7.3
2017-03-28T00:13:07.626Z,7.3
2017-03-28T00:14:09.966Z,7.3
2017-03-28T00:15:12.331Z,7.3
2017-03-28T00:16:15.035Z,7.3
2017-03-28T00:17:17.739Z,7.3
2017-03-28T00:18:20.332Z,7.3
2017-03-28T00:19:23.169Z,7.3
2017-03-28T00:20:25.380Z,7.3
2017-03-28T00:22:30.500Z,7.2
2017-03-28T00:23:33.462Z,7.2
2017-03-28T00:24:36.298Z,7.2
2017-03-28T00:25:38.643Z,7.2
2017-03-28T00:26:41.480Z,7.3
2017-03-28T00:27:43.818Z,7.3
2017-03-28T00:28:46.967Z,7.3
2017-03-28T00:29:49.307Z,7.3
2017-03-28T00:30:51.651Z,7.2
2017-03-28T00:31:54.493Z,7.2
2017-03-28T00:32:57.336Z,7.2
2017-03-28T00:33:59.925Z,7.2
2017-03-28T00:35:02.275Z,7.2
2017-03-28T00:36:05.114Z,7.2
2017-03-28T00:37:07.450Z,7.2
2017-03-28T00:38:10.294Z,7.2
2017-03-28T00:39:13.393Z,7.2
2017-03-28T00:40:15.732Z,7.2
2017-03-28T00:41:18.070Z,7.1
2017-03-28T00:42:20.907Z,7.1
2017-03-28T00:43:23.249Z,7.1
2017-03-28T00:44:26.208Z,7.1
2017-03-28T00:45:28.549Z,7.1
2017-03-28T00:46:31.386Z,7
2017-03-28T00:47:34.228Z,7
2017-03-28T00:48:36.570Z,7
2017-03-28T00:49:39.528Z,7
2017-03-28T00:50:41.861Z,7
2017-03-28T00:51:44.602Z,7
2017-03-28T00:52:47.503Z,7
2017-03-28T00:53:49.845Z,7
2017-03-28T00:54:52.450Z,7
2017-03-28T00:55:54.785Z,7
2017-03-28T00:56:57.630Z,6.9
2017-03-28T00:59:02.874Z,6.9
2017-03-28T01:00:05.965Z,6.9
2017-03-28T01:01:08.306Z,6.9
2017-03-28T01:02:10.643Z,6.9
2017-03-28T01:03:13.489Z,6.9
2017-03-28T01:04:15.831Z,6.9
2017-03-28T01:05:18.923Z,6.9
2017-03-28T01:06:21.259Z,6.8
2017-03-28T01:07:24.104Z,6.8
2017-03-28T01:08:26.442Z,6.8
2017-03-28T01:09:29.280Z,6.8
2017-03-28T01:10:32.148Z,6.8
2017-03-28T01:11:34.486Z,6.8
2017-03-28T01:12:36.825Z,6.8
2017-03-28T01:13:39.674Z,6.8
2017-03-28T01:14:42.517Z,6.8
2017-03-28T01:15:45.168Z,6.8
2017-03-28T01:16:47.504Z,6.8
2017-03-28T01:17:50.344Z,6.8
2017-03-28T01:18:52.685Z,6.8
2017-03-28T01:19:55.532Z,6.7
2017-03-28T01:20:58.123Z,6.7
2017-03-28T01:22:00.463Z,6.7
2017-03-28T01:23:03.306Z,6.7
2017-03-28T01:24:05.691Z,6.7
2017-03-28T01:25:08.539Z,6.7
2017-03-28T01:26:11.633Z,6.7
2017-03-28T01:27:13.974Z,6.7
2017-03-28T01:28:16.310Z,6.7
2017-03-28T01:29:19.153Z,6.8
2017-03-28T01:30:21.494Z,6.8
2017-03-28T01:31:24.499Z,6.7
2017-03-28T01:32:26.713Z,6.7
2017-03-28T01:33:29.554Z,6.7
2017-03-28T01:34:32.266Z,6.7
2017-03-28T01:35:34.609Z,6.6
2017-03-28T01:36:37.709Z,6.6
2017-03-28T01:37:40.047Z,6.6
2017-03-28T01:38:42.385Z,6.6
2017-03-28T01:39:45.223Z,6.6
2017-03-28T01:40:48.062Z,6.6
2017-03-28T01:41:50.651Z,6.5
2017-03-28T01:42:52.992Z,6.5
2017-03-28T01:43:55.837Z,6.5
2017-03-28T01:44:58.176Z,6.4
2017-03-28T01:47:03.674Z,6.3
2017-03-28T01:48:05.876Z,6.3
2017-03-28T01:49:08.732Z,6.3
2017-03-28T01:50:11.585Z,6.3
2017-03-28T01:51:13.925Z,6.3
2017-03-28T01:52:17.018Z,6.3
2017-03-28T01:53:19.356Z,6.2
2017-03-28T01:54:21.732Z,6.2
2017-03-28T01:55:24.577Z,6.1
2017-03-28T01:56:26.909Z,6.1
2017-03-28T01:57:30.003Z,6.1
2017-03-28T01:58:32.344Z,6.1
2017-03-28T02:00:37.587Z,6.1
2017-03-28T02:01:39.923Z,6.1
2017-03-28T02:02:43.016Z,6.1
2017-03-28T02:03:45.355Z,6.1
2017-03-28T02:04:48.200Z,6.2
2017-03-28T02:05:50.550Z,6.2
2017-03-28T02:06:53.399Z,6.1
2017-03-28T02:07:56.000Z,6.1
2017-03-28T02:08:58.343Z,6.1
2017-03-28T02:10:01.188Z,6.1
2017-03-28T02:11:03.535Z,6.1
2017-03-28T02:12:06.382Z,6.1
2017-03-28T02:13:08.974Z,6
2017-03-28T02:14:11.189Z,6
2017-03-28T02:15:14.037Z,6
2017-03-28T02:16:16.886Z,6
2017-03-28T02:18:22.387Z,6
2017-03-28T02:19:24.596Z,6
2017-03-28T02:20:26.946Z,5.9
2017-03-28T02:21:29.791Z,5.9
2017-03-28T02:22:32.640Z,5.8
2017-03-28T02:23:35.238Z,5.9
2017-03-28T02:24:37.581Z,5.8
2017-03-28T02:25:40.424Z,5.9
2017-03-28T02:26:42.765Z,6
2017-03-28T02:27:45.616Z,6
2017-03-28T02:28:48.211Z,6
2017-03-28T02:29:50.558Z,6
2017-03-28T02:30:53.405Z,6
2017-03-28T02:31:55.746Z,6
2017-03-28T02:32:58.595Z,6
2017-03-28T02:34:01.193Z,6
2017-03-28T02:35:03.407Z,6
2017-03-28T02:36:06.121Z,6
2017-03-28T02:37:08.832Z,6
2017-03-28T02:38:11.679Z,6
2017-03-28T02:39:14.144Z,6
2017-03-28T02:41:19.458Z,6
2017-03-28T02:42:21.794Z,6.1
2017-03-28T02:43:24.642Z,6.1
2017-03-28T02:44:27.289Z,6.1
2017-03-28T02:45:29.498Z,6.1
2017-03-28T02:46:32.069Z,6.1
2017-03-28T02:47:34.919Z,6.1
2017-03-28T02:48:37.636Z,6.1
2017-03-28T02:49:40.232Z,6.1
2017-03-28T02:50:42.441Z,6
2017-03-28T02:51:45.151Z,6
2017-03-28T02:52:47.997Z,6
2017-03-28T02:53:50.711Z,6
2017-03-28T02:54:53.310Z,5.9
2017-03-28T02:55:55.660Z,6
2017-03-28T02:56:58.373Z,6
2017-03-28T02:58:01.222Z,5.9
2017-03-28T02:59:03.568Z,5.9
2017-03-28T03:00:06.533Z,5.9
2017-03-28T03:01:08.877Z,5.9
2017-03-28T03:02:11.223Z,5.9
2017-03-28T03:03:14.085Z,5.9
2017-03-28T03:04:16.292Z,6
2017-03-28T03:05:19.262Z,6
2017-03-28T03:06:22.112Z,6
2017-03-28T03:07:24.460Z,6
2017-03-28T03:08:27.315Z,6
2017-03-28T03:09:29.670Z,6
2017-03-28T03:10:32.639Z,6
2017-03-28T03:11:34.983Z,6
2017-03-28T03:14:42.645Z,5.9
2017-03-28T03:15:45.742Z,5.9
2017-03-28T03:16:48.083Z,5.9
2017-03-28T03:17:50.984Z,5.9
2017-03-28T03:18:53.325Z,5.9
2017-03-28T03:19:55.672Z,5.9
2017-03-28T03:20:58.823Z,5.9
2017-03-28T03:22:01.175Z,5.9
2017-03-28T03:23:03.523Z,5.9
2017-03-28T03:24:06.375Z,5.9
2017-03-28T03:25:08.723Z,5.9
2017-03-28T03:26:11.825Z,5.9
2017-03-28T03:27:14.050Z,5.9
2017-03-28T03:28:16.401Z,5.9
2017-03-28T03:29:19.247Z,5.9
2017-03-28T03:30:21.588Z,5.8
2017-03-28T03:31:24.547Z,5.8
2017-03-28T03:32:26.889Z,5.8
2017-03-28T03:33:29.759Z,5.8
2017-03-28T03:34:32.100Z,5.8
2017-03-28T03:36:37.604Z,5.7
2017-03-28T03:37:39.953Z,5.6
2017-03-28T03:38:42.792Z,5.6
2017-03-28T03:39:45.137Z,5.5
2017-03-28T03:40:47.982Z,5.5
2017-03-28T03:41:50.575Z,5.5
2017-03-28T03:42:52.945Z,5.5
2017-03-28T03:43:55.796Z,5.5
2017-03-28T03:44:58.019Z,5.5
2017-03-28T03:46:00.868Z,5.5
2017-03-28T03:47:03.517Z,5.5
2017-03-28T03:48:06.233Z,5.6
2017-03-28T03:49:08.580Z,5.6
2017-03-28T03:50:11.440Z,5.5
2017-03-28T03:51:13.782Z,5.5
2017-03-28T03:52:16.743Z,5.5
2017-03-28T03:53:19.089Z,5.5
2017-03-28T03:54:21.434Z,5.5
2017-03-28T03:55:24.284Z,5.4
2017-03-28T03:56:26.625Z,5.3
2017-03-28T03:57:29.720Z,5.3
2017-03-28T03:58:32.070Z,5.3
2017-03-28T03:59:34.277Z,5.3
2017-03-28T04:00:37.131Z,5.3
2017-03-28T04:01:39.978Z,5.2
2017-03-28T04:02:42.630Z,5.2
2017-03-28T04:03:44.836Z,5.2
2017-03-28T04:04:47.550Z,5.2
2017-03-28T04:06:52.810Z,5.1
2017-03-28T04:07:55.410Z,5.1
2017-03-28T04:13:08.688Z,5
2017-03-28T04:14:11.031Z,5
2017-03-28T04:15:13.373Z,5
2017-03-28T04:16:16.215Z,4.9
2017-03-28T04:17:18.558Z,5
2017-03-28T04:18:21.664Z,5
2017-03-28T04:19:23.877Z,5
2017-03-28T04:20:26.229Z,5
2017-03-28T04:24:37.109Z,5.1
2017-03-28T04:25:39.453Z,5.1
2017-03-28T04:26:41.796Z,5.1
2017-03-28T04:27:44.646Z,5.1
2017-03-28T04:28:47.410Z,5.1
2017-03-28T04:29:50.009Z,5.1
2017-03-28T04:30:52.350Z,5.1
2017-03-28T04:31:55.193Z,5.1
2017-03-28T04:32:57.549Z,5.1
2017-03-28T04:34:00.406Z,5.1
2017-03-28T04:35:03.015Z,5
2017-03-28T04:36:05.362Z,5
2017-03-28T04:37:07.707Z,5
2017-03-28T04:39:12.960Z,5
2017-03-28T04:40:16.060Z,5
2017-03-28T04:41:18.403Z,5
2017-03-28T04:42:20.615Z,5
2017-03-28T04:43:23.471Z,5
2017-03-28T04:47:34.295Z,5
2017-03-28T04:51:44.360Z,5.1
2017-03-28T04:52:47.009Z,5.1
2017-03-28T04:53:49.391Z,5.1
2017-03-28T04:54:51.732Z,5.1
2017-03-28T04:55:54.582Z,5.2
2017-03-28T04:56:56.928Z,5.2
2017-03-28T04:58:00.036Z,5.2
2017-03-28T05:00:04.518Z,5.3
2017-03-28T05:01:07.229Z,5.3
2017-03-28T05:02:10.075Z,5.3
2017-03-28T05:03:12.676Z,5.3
2017-03-28T05:04:15.021Z,5.3
2017-03-28T05:05:17.874Z,5.3
2017-03-28T05:06:20.218Z,5.4
2017-03-28T05:07:23.063Z,5.4
2017-03-28T05:08:25.664Z,5.4
2017-03-28T05:09:28.014Z,5.4
2017-03-28T05:10:30.858Z,5.4
2017-03-28T05:11:33.204Z,5.4
2017-03-28T05:12:36.056Z,5.5
2017-03-28T05:13:38.650Z,5.5
2017-03-28T05:14:41.368Z,5.5
2017-03-28T05:15:43.709Z,5.5
2017-03-28T05:16:46.557Z,5.5
2017-03-28T05:17:48.902Z,5.5
2017-03-28T05:18:52.005Z,5.5
2017-03-28T05:19:54.218Z,5.5
2017-03-28T05:20:56.562Z,5.6
2017-03-28T05:21:59.410Z,5.6
2017-03-28T05:23:01.755Z,5.6
2017-03-28T05:24:04.855Z,5.6
2017-03-28T05:26:09.603Z,5.6
2017-03-28T05:27:12.449Z,5.7
2017-03-28T05:28:14.798Z,5.8
2017-03-28T05:29:17.815Z,5.8
2017-03-28T05:30:20.160Z,5.9
2017-03-28T05:31:22.502Z,6
2017-03-28T05:32:25.215Z,6
2017-03-28T05:33:27.613Z,6.1
2017-03-28T05:45:59.452Z,7.6
2017-03-28T05:56:25.185Z,9.1
2017-03-28T05:59:32.850Z,9.6
2017-03-28T06:29:50.985Z,11.3
2017-03-28T06:41:19.657Z,12
2017-03-28T06:57:00.458Z,13.2
2017-03-28T07:02:14.052Z,12.9
2017-03-28T07:03:16.394Z,13
2017-03-28T07:04:19.244Z,13.2
2017-03-28T07:05:21.584Z,13.5
2017-03-28T07:06:24.435Z,13.3
2017-03-28T07:07:27.397Z,13.3
2017-03-28T07:08:30.104Z,13.5
2017-03-28T07:09:32.443Z,13.4
2017-03-28T07:10:35.296Z,13.5
2017-03-28T07:11:38.147Z,13.5
2017-03-28T07:12:41.248Z,13.6
2017-03-28T07:13:43.462Z,13.6
2017-03-28T07:14:46.171Z,13.8
2017-03-28T07:15:49.014Z,13.7
2017-03-28T07:16:51.859Z,13.9
2017-03-28T07:17:54.960Z,14.1
2017-03-28T07:18:57.305Z,14.1
2017-03-28T07:20:00.152Z,14.1
2017-03-28T07:22:05.402Z,14.3
2017-03-28T07:23:08.552Z,14.6
2017-03-28T07:24:10.896Z,14.5
2017-03-28T07:25:13.615Z,14.8
2017-03-28T07:26:16.460Z,14.7
2017-03-28T07:27:19.309Z,14.5
2017-03-28T07:28:21.902Z,14.6
2017-03-28T07:29:24.612Z,14.6
2017-03-28T07:30:27.322Z,14.7
2017-03-28T07:31:30.171Z,14.7
2017-03-28T07:32:33.579Z,14.8
2017-03-28T07:33:35.544Z,14.6
2017-03-28T07:34:38.391Z,14.8
2017-03-28T07:35:41.239Z,14.9
2017-03-28T07:36:44.654Z,14.8
2017-03-28T07:37:46.499Z,14.5
2017-03-28T07:38:49.607Z,14.6
2017-03-28T07:39:51.951Z,14.6
2017-03-28T07:40:54.798Z,14.7
2017-03-28T07:41:57.641Z,14.8
2017-03-28T07:43:00.354Z,15
2017-03-28T07:44:03.453Z,15.2
2017-03-28T07:45:05.794Z,15.3
2017-03-28T07:46:08.509Z,15.5
2017-03-28T07:47:11.355Z,15.6
2017-03-28T07:48:14.210Z,15.6
2017-03-28T07:49:17.306Z,15.8
2017-03-28T07:50:19.664Z,15.9
2017-03-28T07:51:22.508Z,16
2017-03-28T07:52:25.359Z,16
2017-03-28T07:53:28.210Z,16.1
2017-03-28T07:54:31.312Z,16
2017-03-28T07:55:33.379Z,16
2017-03-28T07:56:36.225Z,16
2017-03-28T07:57:39.066Z,16
2017-03-28T07:58:41.912Z,16.1
2017-03-28T07:59:44.873Z,16.1
2017-03-28T08:00:46.946Z,16.1
2017-03-28T08:01:50.169Z,16.2
2017-03-28T08:02:53.028Z,16.3
2017-03-28T08:03:55.873Z,16.6
2017-03-28T08:04:58.972Z,16.5
2017-03-28T08:06:01.741Z,16
2017-03-28T08:07:03.815Z,15.8
2017-03-28T08:08:07.165Z,15.8
2017-03-28T08:09:09.743Z,16
2017-03-28T08:10:12.890Z,15.8
2017-03-28T08:11:15.097Z,15.9
2017-03-28T08:12:18.581Z,15.7
2017-03-28T08:13:20.930Z,15.9
2017-03-28T08:14:24.335Z,16
2017-03-28T08:15:26.450Z,16.3
2017-03-28T08:16:29.297Z,16.3
2017-03-28T08:17:32.144Z,16.5
2017-03-28T08:18:34.488Z,16.6
2017-03-28T08:19:37.348Z,16.6
2017-03-28T08:20:41.011Z,16.5
2017-03-28T08:21:42.886Z,16.7
2017-03-28T08:22:45.731Z,17
2017-03-28T08:23:48.573Z,17.1
2017-03-28T08:24:51.421Z,17.2
2017-03-28T08:25:54.527Z,17.5
2017-03-28T08:26:56.864Z,17.9
2017-03-28T08:27:59.718Z,18.3
2017-03-28T08:29:02.571Z,18.6
2017-03-28T08:30:05.279Z,18.9
2017-03-28T08:32:11.153Z,19.3
2017-03-28T08:33:14.002Z,19.5
2017-03-28T08:34:16.731Z,19.8
2017-03-28T08:35:19.449Z,19.8
2017-03-28T08:36:22.159Z,19.4
2017-03-28T08:37:25.125Z,19.7
2017-03-28T08:38:27.972Z,19.7
2017-03-28T08:39:30.818Z,19.8
2017-03-28T08:40:33.165Z,19.5
2017-03-28T08:41:35.736Z,19.3
2017-03-28T08:42:39.382Z,19.2
2017-03-28T08:43:41.725Z,18.9
2017-03-28T08:44:44.569Z,18.6
2017-03-28T08:45:47.413Z,18.4
2017-03-28T08:47:53.434Z,18
2017-03-28T08:48:55.775Z,17.9
2017-03-28T08:49:58.630Z,18
2017-03-28T08:51:01.341Z,17.8
2017-03-28T08:52:04.051Z,17.6
2017-03-28T08:53:07.144Z,17.5
2017-03-28T08:54:09.862Z,17.3
2017-03-28T08:55:12.568Z,17.2
2017-03-28T08:56:15.411Z,17
2017-03-28T08:57:18.259Z,17
2017-03-28T08:58:21.416Z,16.9
2017-03-28T08:59:23.809Z,16.9
2017-03-28T09:00:27.025Z,16.9
2017-03-28T09:01:29.750Z,16.7
2017-03-28T09:02:32.468Z,16.7
2017-03-28T09:03:35.567Z,16.6
2017-03-28T09:04:38.413Z,16.5
2017-03-28T09:05:41.126Z,16.5
2017-03-28T09:06:43.978Z,16.4
2017-03-28T09:07:46.883Z,16.4
2017-03-28T09:08:50.591Z,16.3
2017-03-28T09:09:52.438Z,16.2
2017-03-28T09:10:55.286Z,16.2
2017-03-28T09:11:58.128Z,16.1
2017-03-28T09:13:00.978Z,16.1
2017-03-28T09:14:04.126Z,16
2017-03-28T09:15:06.468Z,16
2017-03-28T09:16:09.181Z,16
2017-03-28T09:17:12.405Z,16
2017-03-28T09:18:14.750Z,15.9
2017-03-28T09:19:17.902Z,15.9
2017-03-28T09:20:20.749Z,15.9
2017-03-28T09:21:23.359Z,15.8
2017-03-28T09:22:26.206Z,15.8
2017-03-28T09:24:32.129Z,15.8
2017-03-28T09:25:34.837Z,15.8
2017-03-28T09:26:37.687Z,15.6
2017-03-28T09:27:40.054Z,15.6
2017-03-28T09:28:42.905Z,15.6
2017-03-28T09:29:46.055Z,15.5
2017-03-28T09:30:48.908Z,15.4
2017-03-28T09:31:51.250Z,15.5
2017-03-28T09:32:54.477Z,15.3
2017-03-28T09:33:56.819Z,15.3
2017-03-28T09:35:00.543Z,15.2
2017-03-28T09:36:02.532Z,15.2
2017-03-28T09:37:05.385Z,15.2
2017-03-28T09:38:08.235Z,15
2017-03-28T09:39:11.083Z,15
2017-03-28T09:40:14.181Z,15.1
2017-03-28T09:41:16.527Z,15.1
2017-03-28T09:42:19.374Z,15
2017-03-28T09:43:22.221Z,14.8
2017-03-28T09:44:25.068Z,14.8
2017-03-28T09:45:28.217Z,14.9
2017-03-28T09:48:35.870Z,14.6
2017-03-28T09:49:38.715Z,14.6
2017-03-28T09:50:41.674Z,14.6
2017-03-28T09:51:44.387Z,14.6
2017-03-28T09:52:46.958Z,14.6
2017-03-28T09:53:49.805Z,14.7
2017-03-28T09:54:52.653Z,14.6
2017-03-28T09:55:56.308Z,14.5
2017-03-28T09:56:58.010Z,14.6
2017-03-28T09:58:01.360Z,14.5
2017-03-28T09:59:03.704Z,14.5
2017-03-28T10:00:06.547Z,14.4
2017-03-28T10:01:09.526Z,14.4
2017-03-28T10:03:14.785Z,14.5
2017-03-28T10:04:17.637Z,14.5
2017-03-28T10:05:20.487Z,14.5
2017-03-28T10:06:23.588Z,14.6
2017-03-28T10:07:26.492Z,14.6
2017-03-28T10:08:28.705Z,14.7
2017-03-28T10:09:31.548Z,15
2017-03-28T10:10:34.395Z,15.1
2017-03-28T10:11:37.548Z,15.2
2017-03-28T10:12:40.168Z,15
2017-03-28T10:13:42.510Z,14.9
2017-03-28T10:14:45.356Z,14.8
2017-03-28T10:15:48.213Z,14.6
2017-03-28T10:16:51.184Z,14.6
2017-03-28T10:17:54.029Z,14.6
2017-03-28T10:18:56.441Z,14.5
2017-03-28T10:19:59.294Z,14.5
2017-03-28T10:21:02.149Z,14.6
2017-03-28T10:24:10.563Z,14.9
2017-03-28T10:25:13.407Z,15
2017-03-28T10:26:16.117Z,14.8
2017-03-28T10:27:18.689Z,14.6
2017-03-28T10:28:21.402Z,14.6
2017-03-28T10:29:24.504Z,15
2017-03-28T10:30:26.853Z,14.9
2017-03-28T10:31:29.712Z,14.9
2017-03-28T10:32:32.553Z,15
2017-03-28T10:33:35.403Z,15.2
2017-03-28T10:34:38.504Z,15.3
2017-03-28T10:35:40.853Z,15.2
2017-03-28T10:36:43.699Z,15.2
2017-03-28T10:37:46.546Z,15.4
2017-03-28T10:38:49.401Z,15.3
2017-03-28T10:40:54.920Z,14.7
2017-03-28T10:41:57.766Z,14.9
2017-03-28T10:43:00.113Z,14.7
2017-03-28T10:44:02.965Z,14.5
2017-03-28T10:45:05.813Z,14.5
2017-03-28T10:46:08.914Z,14.5
2017-03-28T10:47:11.253Z,14.5
2017-03-28T10:48:14.099Z,14.8
2017-03-28T10:49:16.948Z,14.6
2017-03-28T10:50:19.791Z,14.7
2017-03-28T10:51:23.440Z,15.1
2017-03-28T10:52:25.215Z,15.1
2017-03-28T10:53:28.070Z,15.1
2017-03-28T10:54:30.711Z,15.2
2017-03-28T10:55:33.593Z,15
2017-03-28T10:56:36.750Z,15
2017-03-28T10:57:39.092Z,14.8
2017-03-28T10:58:41.946Z,14.6
2017-03-28T10:59:44.661Z,14.6
2017-03-28T11:00:47.515Z,15.1
2017-03-28T11:01:50.525Z,15.1
2017-03-28T11:02:52.604Z,14.9
2017-03-28T11:03:55.821Z,14.9
2017-03-28T11:04:58.541Z,14.8
2017-03-28T11:06:01.390Z,14.8
2017-03-28T11:08:06.758Z,14.9
2017-03-28T11:09:09.604Z,14.7
2017-03-28T11:10:12.457Z,14.8
2017-03-28T11:11:15.174Z,15
2017-03-28T11:12:18.022Z,14.8
2017-03-28T11:13:21.118Z,14.6
2017-03-28T11:14:23.332Z,14.7
2017-03-28T11:15:26.176Z,14.6
2017-03-28T11:16:28.885Z,14.6
2017-03-28T11:17:31.733Z,14.7
2017-03-28T11:18:34.830Z,15
2017-03-28T11:19:37.175Z,15
2017-03-28T11:20:39.883Z,15
2017-03-28T11:21:42.728Z,15.1
2017-03-28T11:22:45.576Z,15.1
2017-03-28T11:23:49.318Z,14.9
2017-03-28T11:24:51.187Z,14.8
2017-03-28T11:25:54.029Z,14.8
2017-03-28T11:26:56.873Z,14.8
2017-03-28T11:27:59.737Z,14.8
2017-03-28T11:29:02.704Z,14.9
2017-03-28T11:30:04.916Z,15.1
2017-03-28T11:31:07.767Z,14.9
2017-03-28T11:32:10.615Z,14.7
2017-03-28T11:33:13.471Z,14.8
2017-03-28T11:34:16.570Z,15.3
2017-03-28T11:35:18.914Z,15.3
2017-03-28T11:36:21.762Z,15.2
2017-03-28T11:37:24.615Z,15
2017-03-28T11:38:27.334Z,14.8
2017-03-28T11:39:30.438Z,15.1
2017-03-28T11:40:32.653Z,15.3
2017-03-28T11:41:35.497Z,15
2017-03-28T11:42:38.342Z,15.1
2017-03-28T11:43:41.192Z,15.4
2017-03-28T11:44:44.288Z,15.1
2017-03-28T11:45:46.631Z,15.4
2017-03-28T11:46:49.476Z,15.6
2017-03-28T11:47:52.324Z,15.3
2017-03-28T11:48:55.169Z,15.2
2017-03-28T11:49:58.134Z,15.1
2017-03-28T11:51:00.409Z,15.1
2017-03-28T11:52:03.627Z,15
2017-03-28T11:53:05.971Z,15
2017-03-28T11:54:08.817Z,14.9
2017-03-28T11:55:11.786Z,14.8
2017-03-28T11:56:14.634Z,15
2017-03-28T11:57:17.480Z,14.8
2017-03-28T11:58:20.324Z,15
2017-03-28T11:59:22.535Z,14.9
2017-03-28T12:00:26.003Z,14.8
2017-03-28T12:01:28.350Z,14.8
2017-03-28T12:02:31.194Z,15
2017-03-28T12:03:34.047Z,15.1
2017-03-28T12:04:36.764Z,15.1
2017-03-28T12:05:39.863Z,15.3
2017-03-28T12:06:42.201Z,15.2
2017-03-28T12:07:44.914Z,15.4
2017-03-28T12:08:47.758Z,15.3
2017-03-28T12:10:53.763Z,15
2017-03-28T12:24:29.765Z,15.4
2017-03-28T12:25:32.108Z,15.5
2017-03-28T12:27:37.861Z,15.4
2017-03-28T12:33:54.999Z,15.6
2017-03-28T12:45:25.154Z,15.1
2017-03-28T12:47:30.911Z,15.2
2017-03-28T12:53:47.467Z,15.8
2017-03-28T12:56:55.624Z,15.6
2017-03-28T13:10:31.981Z,16.1
2017-03-28T13:12:37.732Z,15.9
2017-03-28T13:17:52.016Z,15.6
2017-03-28T13:18:54.362Z,15.6
2017-03-28T13:33:33.764Z,15.9
2017-03-28T13:42:58.626Z,15.3
2017-03-28T13:53:26.902Z,15.4
2017-03-28T13:54:29.123Z,15.6
2017-03-28T13:55:31.981Z,15.5
2017-03-28T13:58:40.766Z,16
2017-03-28T13:59:43.114Z,16
2017-03-28T14:00:45.961Z,15.8
2017-03-28T14:01:48.540Z,15.8
2017-03-28T14:02:51.384Z,15.6
2017-03-28T14:03:54.480Z,15.5
2017-03-28T14:04:57.191Z,15.7
2017-03-28T14:06:00.041Z,15.5
2017-03-28T14:07:02.888Z,15.3
2017-03-28T14:09:08.399Z,15.4
2017-03-28T14:10:11.111Z,15.2
2017-03-28T14:11:13.959Z,15.1
2017-03-28T14:12:16.803Z,15.5
2017-03-28T14:13:19.381Z,15.3
2017-03-28T14:14:22.587Z,15.3
2017-03-28T14:15:24.946Z,15.3
2017-03-28T14:16:27.794Z,15.1
2017-03-28T14:17:30.641Z,15.2
2017-03-28T14:19:36.706Z,15.5
2017-03-28T14:21:41.960Z,15.6
2017-03-28T14:22:44.804Z,15.7
2017-03-28T14:23:47.182Z,15.6
2017-03-28T14:24:50.327Z,15.5
2017-03-28T14:25:53.174Z,15.5
2017-03-28T14:26:55.519Z,15.5
2017-03-28T14:27:58.362Z,15.4
2017-03-28T14:29:01.204Z,15.3
2017-03-28T14:30:04.356Z,15.1
2017-03-28T14:31:06.703Z,15.2
2017-03-28T14:32:09.545Z,15.6
2017-03-28T14:33:12.394Z,15.5
2017-03-28T14:34:15.245Z,15.5
2017-03-28T14:35:18.390Z,15.6
2017-03-28T14:36:20.733Z,15.8
2017-03-28T14:37:23.580Z,15.7
2017-03-28T14:38:26.299Z,15.6
2017-03-28T14:39:29.152Z,15.6
2017-03-28T14:40:32.252Z,15.6
2017-03-28T14:41:34.600Z,15.5
2017-03-28T14:42:37.681Z,15.5
2017-03-28T14:43:40.389Z,15.8
2017-03-28T14:44:43.236Z,15.8
2017-03-28T14:46:49.110Z,15.8
2017-03-28T14:47:51.456Z,15.6
2017-03-28T14:48:54.306Z,15.4
2017-03-28T14:49:57.152Z,15.4
2017-03-28T14:50:59.998Z,15.3
2017-03-28T14:52:02.963Z,15.1
2017-03-28T14:53:05.369Z,15.5
2017-03-28T14:54:08.087Z,15.6
2017-03-28T14:55:10.930Z,15.7
2017-03-28T14:56:13.779Z,15.8
2017-03-28T14:57:16.931Z,16
2017-03-28T14:58:19.274Z,16
2017-03-28T14:59:22.122Z,16
2017-03-28T15:00:24.965Z,16
2017-03-28T15:01:27.818Z,15.8
2017-03-28T15:02:30.966Z,15.8
2017-03-28T15:03:33.679Z,15.7
2017-03-28T15:04:35.888Z,15.8
2017-03-28T15:05:39.240Z,15.8
2017-03-28T15:06:41.586Z,16
2017-03-28T15:08:47.650Z,15.7
2017-03-28T15:09:49.993Z,15.8
2017-03-28T15:11:55.747Z,15.6
2017-03-28T15:12:58.600Z,15.5
2017-03-28T15:14:01.697Z,15.4
2017-03-28T15:15:03.912Z,15.5
2017-03-28T15:17:10.231Z,15.6
2017-03-28T15:18:12.375Z,15.5
2017-03-28T15:19:15.390Z,15.5
2017-03-28T15:21:21.157Z,15.4
2017-03-28T15:22:23.498Z,15.4
2017-03-28T15:23:26.348Z,15.3
2017-03-28T15:24:30.009Z,15.2
2017-03-28T15:25:32.221Z,15.1
2017-03-28T15:26:34.798Z,15.3
2017-03-28T15:27:37.645Z,15.4
2017-03-28T15:28:40.494Z,15.4
2017-03-28T15:29:44.018Z,15.6
2017-03-28T15:30:46.228Z,15.5
2017-03-28T15:31:49.074Z,15.5
2017-03-28T15:32:51.418Z,15.6
2017-03-28T15:33:54.265Z,16
2017-03-28T15:34:57.425Z,16.1
2017-03-28T15:36:00.274Z,15.9
2017-03-28T15:37:02.614Z,15.9
2017-03-28T15:38:05.462Z,15.7
2017-03-28T15:39:08.311Z,15.9
2017-03-28T15:40:11.413Z,15.8
2017-03-28T15:41:14.260Z,15.8
2017-03-28T15:42:16.604Z,16
2017-03-28T15:43:19.446Z,15.8
2017-03-28T15:44:22.301Z,15.8
2017-03-28T15:45:25.402Z,15.7
2017-03-28T15:46:27.747Z,15.6
2017-03-28T15:47:30.591Z,15.5
2017-03-28T15:48:33.306Z,15.6
2017-03-28T15:49:36.150Z,15.5
2017-03-28T15:50:39.620Z,15.5
2017-03-28T15:51:42.388Z,15.6
2017-03-28T15:52:44.734Z,15.6
2017-03-28T15:53:47.590Z,15.6
2017-03-28T15:54:50.508Z,15.8
2017-03-28T15:55:53.656Z,15.6
2017-03-28T15:57:58.772Z,15.7
2017-03-28T15:59:01.620Z,15.7
2017-03-28T16:00:04.465Z,15.6
2017-03-28T16:01:07.430Z,15.6
2017-03-28T16:02:09.780Z,15.6
2017-03-28T16:05:18.451Z,15.7
2017-03-28T16:06:21.050Z,15.6
2017-03-28T16:07:23.890Z,15.7
2017-03-28T16:08:26.514Z,15.9
2017-03-28T16:09:29.377Z,16
2017-03-28T16:10:32.786Z,16.1
2017-03-28T16:11:35.244Z,15.8
2017-03-28T16:12:37.584Z,15.6
2017-03-28T16:13:40.426Z,15.5
2017-03-28T16:14:43.276Z,15.3
2017-03-28T16:15:46.121Z,15.5
2017-03-28T16:16:49.219Z,15.7
2017-03-28T16:19:57.382Z,15.6
2017-03-28T16:21:00.255Z,15.5
2017-03-28T16:23:06.385Z,15.5
2017-03-28T16:24:08.596Z,15.5
2017-03-28T16:25:11.445Z,15.4
2017-03-28T16:27:16.699Z,15.6
2017-03-28T16:28:20.232Z,15.5
2017-03-28T16:29:23.131Z,15.3
2017-03-28T16:30:26.050Z,15.2
2017-03-28T16:32:30.801Z,15
2017-03-28T16:33:33.901Z,15
2017-03-28T16:34:36.243Z,15
2017-03-28T16:35:38.959Z,15
2017-03-28T16:36:41.805Z,15.1
2017-03-28T16:37:44.650Z,15.1
2017-03-28T16:38:47.743Z,15
2017-03-28T16:39:50.592Z,14.8
2017-03-28T16:40:52.939Z,14.7
2017-03-28T16:41:55.783Z,15
2017-03-28T16:42:58.635Z,15
2017-03-28T16:44:01.733Z,15
2017-03-28T16:45:04.449Z,14.9
2017-03-28T16:46:07.293Z,15
2017-03-28T16:47:09.640Z,15
2017-03-28T16:48:12.491Z,15.2
2017-03-28T16:49:15.589Z,15.1
2017-03-28T16:50:18.437Z,15
2017-03-28T16:51:20.780Z,14.9
2017-03-28T16:52:24.189Z,14.8
2017-03-28T16:53:26.400Z,14.6
2017-03-28T16:54:29.495Z,14.5
2017-03-28T16:55:32.341Z,14.5
2017-03-28T16:56:35.190Z,14.5
2017-03-28T16:57:37.532Z,14.5
2017-03-28T16:58:40.381Z,14.5
2017-03-28T16:59:43.351Z,14.3
2017-03-28T17:01:49.107Z,14.2
2017-03-28T17:02:51.452Z,14.2
2017-03-28T17:03:54.295Z,14.1
2017-03-28T17:04:57.391Z,14.1
2017-03-28T17:06:00.239Z,14
2017-03-28T17:07:02.578Z,14
2017-03-28T17:08:05.290Z,14
2017-03-28T17:09:08.157Z,14.3
2017-03-28T17:10:11.252Z,14.3
2017-03-28T17:11:14.098Z,14.5
2017-03-28T17:12:16.443Z,14.3
2017-03-28T17:13:19.150Z,14.3
2017-03-28T17:14:21.989Z,14.2
2017-03-28T17:15:25.087Z,14.1
2017-03-28T17:16:27.935Z,14.3
2017-03-28T17:17:30.807Z,14.3
2017-03-28T17:18:33.150Z,14.1
2017-03-28T17:19:35.863Z,14.1
2017-03-28T17:20:39.249Z,14.1
2017-03-28T17:21:41.592Z,14.2
2017-03-28T17:22:44.441Z,14.1
2017-03-28T17:26:55.633Z,14
2017-03-28T17:27:58.478Z,14.1
2017-03-28T17:29:00.820Z,14.3
2017-03-28T17:30:03.529Z,14.3
2017-03-28T17:31:06.372Z,14.4
2017-03-28T17:32:09.472Z,14.3
2017-03-28T17:41:34.885Z,14
2017-03-28T17:42:05.018Z,14
2017-03-28T17:46:48.556Z,13.5
2017-03-28T17:47:50.905Z,13.5
2017-03-28T17:48:53.752Z,13.4
2017-03-28T17:49:56.396Z,13.3
2017-03-28T17:50:59.241Z,13.3
2017-03-28T17:52:02.338Z,13.3
2017-03-28T17:53:04.686Z,13.2
2017-03-28T17:54:07.534Z,13.2
2017-03-28T17:55:10.378Z,13.1
2017-03-28T17:57:16.444Z,13.1
2017-03-28T17:57:46.073Z,13.1
2017-03-28T17:59:21.636Z,13.1
2017-03-28T18:00:23.980Z,13.1
2017-03-28T18:01:26.688Z,13
2017-03-28T18:03:32.747Z,13
2017-03-28T18:04:35.086Z,13
2017-03-28T18:05:37.927Z,13
2017-03-28T18:06:40.639Z,13
2017-03-28T18:07:43.350Z,12.9
2017-03-28T18:09:49.364Z,12.9
2017-03-28T18:10:51.709Z,12.9
2017-03-28T18:11:54.556Z,12.8
2017-03-28T18:12:57.430Z,12.8
2017-03-28T18:14:00.296Z,12.8
2017-03-28T18:15:02.922Z,12.8
2017-03-28T18:16:05.774Z,12.9
2017-03-28T18:17:08.117Z,13
2017-03-28T18:18:11.535Z,13
2017-03-28T18:19:13.932Z,12.9
2017-03-28T18:20:17.026Z,12.9